Saint Charles, MO

3:28 AM CDT on June 02, 2015 (GMT -0500)
Fox Hill | | Change Station
CLOSE
Current Station
Personal Weather Station
Location: Saint Charles, MO
Elevation: 577 ft
Nearby Weather Stations
Active Advisory: Flood Warning

Elev 577 ft 38.82 °N, 90.49 °W | Updated 5 seconds ago

Overcast
Overcast
60.1 °F
Feels Like 60.1 °F
N
0.0
Wind Variable Wind from South
Gusts 0.0 mph

Today
High -- | Low -- °F
--% Chance of Precip.
Yesterday
High -- | Low -- °F
Precip. -- in
5:38 AM 8:21 PM
Full, 100% visible
Pressure 30.11 in
Visibility 10.0 miles
Clouds Overcast 3400 ft
Dew Point 56 °F
Humidity 87%
Rainfall 0.00 in
Snow Depth Not available.
UV 0 out of 12
Pollen 7.50 out of 12
Air Quality Not available.
Flu Activity Sporadic
METAR KSET 020754Z AUTO 06004KT 10SM OVC034 16/14 A3012 RMK AO2 SLP195 T01610139 TSNO

More Conditions Fewer Conditions

Pressure 30.11 in
Visibility 10.0 miles
Clouds Overcast 3400 ft
Dew Point 56 °F
Humidity 87%
Rainfall 0.00 in
Snow Depth Not available.
UV 0 out of 12
Pollen 7.50 out of 12
Air Quality Not available.
Flu Activity Sporadic
METAR KSET 020754Z AUTO 06004KT 10SM OVC034 16/14 A3012 RMK AO2 SLP195 T01610139 TSNO

More Conditions Fewer Conditions

10-Day Weather Forecast

Almanac

Astronomy

Jun. 02, 2015 Rise Set
Actual Time
Civil Twilight
Nautical Twilight
Astronomical Twilight
Moon
Length of Visible Light
Length of Day
Tomorrow will be .
, % of the Moon is Illuminated

Today's Extremes

State Highs State Lows

Community

WunderPhotos

Upload Photos

1,825,895 photos uploaded!

WunderBlogs® & News

Nearby

Air Quality

  Air Quality AQ Index Pollutant
Not available.

Snow Depth

Station Depth Elevation

Earthquake Activity

City Distance Mag. Time & Date
Minimum magnitude displayed is 2.5.

Coastal Water Temperatures

Place Temperature

Stations

Nearby Weather Stations

Station Location Temp. Windchill Dew Point Humidity Wind Precip. Elev Updated Type
                   
Flood Warning
Statement as of 10:16 AM CDT on June 01, 2015

The Flood Warning continues for
the Missouri River at St. Charles
* until tonight.
* At 10 am Monday the stage was 25.8 feet.
* Flood stage is 25.0 feet.
* Minor flooding is occurring and minor flooding is forecast.
* Forecast: the river is forecast to fall below flood stage tonight.

                   Fld latest 7 a.M. Forecast
location stg obs stg 06/02 06/03 06/04 06/05 06/06

Missouri River
St. Charles 25.0 25.81 24.6 23.2 21.4 20.0 18.8


Lat... Lon 3865 9078 3859 9072 3881 9017 3886 9018 3891 9033